Time;durP1;ratioP1;P1;durP2;ratioP2;P2;SDS_P1;SDS_P2;PMS_P1;PMS_P2;Temp;Humidity;BMP_temperature;BMP_pressure;BME280_temperature;BME280_humidity;BME280_pressure;Samples;Min_cycle;Max_cycle;Signal;HPM_P1;HPM_P2
2022/03/02 05:47:44;;;;;;;10.07;9.77;;;-1.20;99.90;;;;;;5983611;22;1459055;-82
2022/03/02 05:50:12;;;;;;;9.90;9.60;;;-1.20;99.90;;;;;;6301414;22;20192;-79
2022/03/02 05:52:40;;;;;;;10.17;9.87;;;-1.20;99.90;;;;;;6303991;22;20200;-79
2022/03/02 05:55:10;;;;;;;10.10;9.80;;;-1.20;99.90;;;;;;6304404;22;20197;-80
2022/03/02 05:57:38;;;;;;;10.17;9.87;;;-1.30;99.90;;;;;;6304108;22;20201;-81
2022/03/02 06:00:08;;;;;;;9.70;9.40;;;-1.30;99.90;;;;;;6295638;22;20196;-80
2022/03/02 06:02:36;;;;;;;10.03;9.73;;;-1.30;99.90;;;;;;6293678;22;20196;-80
2022/03/02 06:05:09;;;;;;;9.67;9.37;;;-1.30;99.90;;;;;;6293657;22;20261;-80
2022/03/02 06:07:37;;;;;;;10.03;9.73;;;-1.30;99.90;;;;;;6296057;22;20227;-80
2022/03/02 06:10:06;;;;;;;10.00;9.70;;;-1.30;99.90;;;;;;6299287;22;20239;-80
2022/03/02 06:12:35;;;;;;;9.80;9.50;;;-1.20;99.90;;;;;;6296297;22;20255;-81
2022/03/02 06:15:04;;;;;;;9.90;9.60;;;-1.20;99.90;;;;;;6294943;22;20293;-80
2022/03/02 06:17:32;;;;;;;9.63;9.33;;;-1.20;99.90;;;;;;6295763;22;20201;-80
2022/03/02 06:20:04;;;;;;;9.73;9.43;;;-1.10;99.90;;;;;;6294850;22;20280;-80
2022/03/02 06:22:34;;;;;;;9.70;9.40;;;-1.10;99.90;;;;;;6295659;22;20200;-81
2022/03/02 06:25:02;;;;;;;9.73;9.43;;;-1.10;99.90;;;;;;6295531;22;20196;-80
2022/03/02 06:27:30;;;;;;;10.07;9.77;;;-1.10;99.90;;;;;;6294877;22;20212;-80
2022/03/02 06:29:57;;;;;;;9.70;9.40;;;-1.10;99.90;;;;;;6288621;22;20667;-80
2022/03/02 06:32:25;;;;;;;9.70;9.40;;;-1.00;99.90;;;;;;6287509;22;20190;-80
2022/03/02 06:34:54;;;;;;;9.67;9.37;;;-1.00;99.90;;;;;;6288115;22;20217;-80
2022/03/02 06:37:22;;;;;;;9.93;9.63;;;-1.00;99.90;;;;;;6288012;22;20200;-80
2022/03/02 06:39:51;;;;;;;10.00;9.70;;;-1.00;99.90;;;;;;6289112;22;20196;-80
2022/03/02 06:42:23;;;;;;;10.03;9.73;;;-0.90;99.90;;;;;;6287805;22;20266;-81
2022/03/02 06:44:57;;;;;;;9.93;9.63;;;-0.90;99.90;;;;;;6288426;22;20220;-80
2022/03/02 06:47:27;;;;;;;10.13;9.83;;;-0.90;99.90;;;;;;6287875;22;20197;-80
2022/03/02 06:50:06;;;;;;;9.93;9.63;;;-0.90;99.90;;;;;;6288091;22;20190;-79
2022/03/02 06:52:36;;;;;;;10.30;10.00;;;-0.90;99.90;;;;;;6288074;22;20213;-80
2022/03/02 06:55:09;;;;;;;10.27;9.97;;;-0.90;99.90;;;;;;6288357;22;20196;-80
2022/03/02 06:57:38;;;;;;;10.33;10.03;;;-0.80;99.90;;;;;;6287826;22;20204;-80
2022/03/02 07:00:09;;;;;;;10.60;10.30;;;-0.70;99.90;;;;;;6287135;22;20649;-80
2022/03/02 07:02:42;;;;;;;10.70;10.40;;;-0.70;99.90;;;;;;6286958;22;20279;-80
2022/03/02 07:05:10;;;;;;;10.57;10.27;;;-0.70;99.90;;;;;;6287415;22;20219;-80
2022/03/02 07:07:38;;;;;;;10.53;10.23;;;-0.60;99.90;;;;;;6288180;22;20225;-80
2022/03/02 07:10:10;;;;;;;10.53;10.23;;;-0.60;99.90;;;;;;6288602;22;20294;-78
2022/03/02 07:12:39;;;;;;;10.33;10.03;;;-0.50;99.90;;;;;;6287906;22;20267;-80
2022/03/02 07:15:12;;;;;;;10.23;9.93;;;-0.40;99.90;;;;;;6287428;22;20193;-80
2022/03/02 07:17:40;;;;;;;10.30;10.00;;;-0.30;99.90;;;;;;6287604;22;20284;-80
2022/03/02 07:20:11;;;;;;;10.60;10.30;;;-0.20;99.90;;;;;;6288069;22;20190;-82
2022/03/02 07:22:54;;;;;;;10.53;10.23;;;-0.10;99.90;;;;;;6287807;22;20215;-80
2022/03/02 07:25:27;;;;;;;10.27;9.97;;;-0.10;99.90;;;;;;6288819;22;20193;-81
2022/03/02 07:27:59;;;;;;;10.20;9.90;;;0.00;99.90;;;;;;6288887;22;20205;-81
2022/03/02 07:30:28;;;;;;;9.93;9.63;;;0.10;99.90;;;;;;6288079;22;20200;-81
2022/03/02 07:32:58;;;;;;;10.20;9.90;;;0.10;99.90;;;;;;6288033;22;20223;-81
2022/03/02 07:35:26;;;;;;;10.37;10.07;;;0.20;99.90;;;;;;6288201;22;20196;-82
2022/03/02 07:37:55;;;;;;;9.93;9.63;;;0.20;99.90;;;;;;6287852;22;20228;-81
2022/03/02 07:40:24;;;;;;;10.23;9.93;;;0.20;99.90;;;;;;6287574;22;20264;-81
2022/03/02 07:42:53;;;;;;;10.13;9.83;;;0.30;99.90;;;;;;6288149;22;20197;-81
2022/03/02 07:45:21;;;;;;;10.17;9.87;;;0.30;99.90;;;;;;6298253;22;20212;-79
2022/03/02 07:47:50;;;;;;;10.27;9.97;;;0.30;99.90;;;;;;6288691;22;20205;-79
2022/03/02 07:50:18;;;;;;;9.87;9.57;;;0.30;99.90;;;;;;6289071;22;20204;-79
2022/03/02 07:52:50;;;;;;;10.20;9.90;;;0.40;99.90;;;;;;6289724;22;20232;-79
2022/03/02 07:55:19;;;;;;;10.40;10.10;;;0.40;99.90;;;;;;6290111;22;20193;-79
2022/03/02 07:57:55;;;;;;;10.50;10.20;;;0.60;99.90;;;;;;6291814;22;20214;-79
2022/03/02 08:00:25;;;;;;;10.50;10.20;;;0.70;99.90;;;;;;6306136;22;20186;-79
2022/03/02 08:02:59;;;;;;;10.27;9.97;;;0.80;99.90;;;;;;6300496;22;20194;-80
2022/03/02 08:05:27;;;;;;;10.07;9.77;;;1.00;99.90;;;;;;6301127;22;20185;-79
2022/03/02 08:07:55;;;;;;;10.10;9.80;;;1.00;99.90;;;;;;6297433;22;20205;-80
2022/03/02 08:10:22;;;;;;;10.27;9.97;;;1.10;99.90;;;;;;6290238;22;20271;-80
2022/03/02 08:12:52;;;;;;;10.30;10.00;;;1.20;99.90;;;;;;6290728;22;20267;-80
2022/03/02 08:15:20;;;;;;;10.47;10.17;;;1.30;99.90;;;;;;6288028;22;20224;-80
2022/03/02 08:17:49;;;;;;;10.43;10.13;;;1.40;99.90;;;;;;6287846;22;20228;-80
2022/03/02 08:20:17;;;;;;;10.50;10.20;;;1.50;99.90;;;;;;6289018;22;20233;-80
2022/03/02 08:22:48;;;;;;;10.67;10.37;;;1.60;99.90;;;;;;6286506;22;20213;-80
2022/03/02 08:25:19;;;;;;;10.70;10.40;;;1.70;99.90;;;;;;6287092;22;20215;-80
2022/03/02 08:27:47;;;;;;;10.20;9.90;;;1.80;99.90;;;;;;6297310;22;20220;-80
2022/03/02 08:30:17;;;;;;;10.40;10.10;;;1.90;99.90;;;;;;6309548;22;20197;-80
2022/03/02 08:32:47;;;;;;;10.20;9.90;;;2.00;99.90;;;;;;6309877;22;20170;-80
2022/03/02 08:35:16;;;;;;;10.60;10.30;;;2.10;99.90;;;;;;6310273;22;20177;-81
2022/03/02 08:37:44;;;;;;;10.80;10.50;;;2.20;99.90;;;;;;6307238;22;20205;-80
2022/03/02 08:40:14;;;;;;;10.77;10.47;;;2.30;99.90;;;;;;6293693;22;20190;-81
2022/03/02 08:42:44;;;;;;;11.00;10.70;;;2.40;99.90;;;;;;6291782;22;20228;-80
2022/03/02 08:45:12;;;;;;;10.83;10.53;;;2.50;99.90;;;;;;6291234;22;20655;-81
2022/03/02 08:47:41;;;;;;;11.07;10.77;;;2.70;99.90;;;;;;6290267;22;20260;-81
2022/03/02 08:50:22;;;;;;;10.73;10.43;;;2.80;99.90;;;;;;6290751;22;20197;-80
2022/03/02 08:52:54;;;;;;;10.57;10.27;;;3.00;99.90;;;;;;6290575;22;20280;-80
2022/03/02 08:55:22;;;;;;;10.80;10.50;;;3.10;99.90;;;;;;6288994;22;20189;-80
2022/03/02 08:57:52;;;;;;;10.60;10.30;;;3.20;99.90;;;;;;6287266;22;20205;-81
2022/03/02 09:00:20;;;;;;;10.30;10.00;;;3.40;99.90;;;;;;6286560;22;20228;-81
2022/03/02 09:02:53;;;;;;;10.13;9.83;;;3.50;99.90;;;;;;6286513;22;20210;-81
2022/03/02 09:05:21;;;;;;;10.30;10.00;;;3.60;99.90;;;;;;6287863;22;20253;-81
2022/03/02 09:07:49;;;;;;;10.50;10.20;;;3.60;99.90;;;;;;6287754;22;20233;-81
2022/03/02 09:10:17;;;;;;;10.70;10.40;;;3.80;99.90;;;;;;6286841;22;20200;-81
2022/03/02 09:12:45;;;;;;;10.30;10.00;;;3.90;99.90;;;;;;6286765;22;20201;-80
2022/03/02 09:15:13;;;;;;;10.50;10.20;;;3.90;99.90;;;;;;6285788;22;20190;-79
2022/03/02 09:17:40;;;;;;;10.53;10.23;;;4.00;99.90;;;;;;6285042;22;20204;-78
2022/03/02 09:20:11;;;;;;;10.33;10.03;;;4.20;99.90;;;;;;6286062;22;20190;-80
2022/03/02 09:22:43;;;;;;;10.80;10.50;;;4.30;99.90;;;;;;6287638;22;20258;-80
2022/03/02 09:25:12;;;;;;;10.57;10.27;;;4.50;99.90;;;;;;6286069;22;20260;-80
2022/03/02 09:27:41;;;;;;;10.70;10.40;;;4.70;99.90;;;;;;6286237;22;20224;-80
2022/03/02 09:30:12;;;;;;;10.40;10.10;;;4.80;99.90;;;;;;6285653;22;20201;-80
2022/03/02 09:32:42;;;;;;;10.67;10.37;;;4.80;99.90;;;;;;6286511;22;20205;-80
2022/03/02 09:35:16;;;;;;;10.80;10.50;;;4.70;99.90;;;;;;6286233;22;20190;-80
2022/03/02 09:37:49;;;;;;;10.50;10.20;;;4.90;99.90;;;;;;6285971;22;20201;-79
2022/03/02 09:40:24;;;;;;;10.80;10.50;;;5.00;99.90;;;;;;6285617;22;21052;-79
2022/03/02 09:42:59;;;;;;;10.50;10.20;;;5.20;99.90;;;;;;6284293;22;20197;-79
2022/03/02 09:45:28;;;;;;;10.60;10.30;;;5.30;99.90;;;;;;6284859;22;20196;-79
2022/03/02 09:47:58;;;;;;;10.77;10.47;;;5.40;99.90;;;;;;6292767;22;20217;-80
2022/03/02 09:50:31;;;;;;;10.50;10.20;;;5.50;99.90;;;;;;6287843;22;20193;-79
2022/03/02 09:53:03;;;;;;;10.33;10.03;;;5.60;99.90;;;;;;6285855;22;20193;-80
2022/03/02 09:55:31;;;;;;;10.80;10.50;;;5.70;99.90;;;;;;6285497;22;20194;-80
2022/03/02 09:58:01;;;;;;;10.93;10.63;;;5.60;99.90;;;;;;6285296;22;20198;-80
2022/03/02 10:00:30;;;;;;;10.60;10.30;;;5.50;99.90;;;;;;6285258;22;20224;-79
2022/03/02 10:03:00;;;;;;;10.50;10.20;;;5.30;99.90;;;;;;6284860;22;20209;-80
2022/03/02 10:05:32;;;;;;;10.50;10.20;;;5.30;99.90;;;;;;6287288;22;20228;-80
2022/03/02 10:08:03;;;;;;;10.70;10.40;;;5.20;99.90;;;;;;6296570;22;20261;-81
2022/03/02 10:10:36;;;;;;;10.57;10.27;;;5.10;99.90;;;;;;6308112;22;20253;-81
2022/03/02 10:13:08;;;;;;;10.40;10.10;;;5.00;99.90;;;;;;6308406;22;20249;-81
2022/03/02 10:15:37;;;;;;;10.30;10.00;;;5.10;99.90;;;;;;6306819;22;20189;-81
2022/03/02 10:18:12;;;;;;;10.43;10.13;;;5.20;99.90;;;;;;6289125;22;20209;-81
2022/03/02 10:20:49;;;;;;;10.40;10.10;;;5.20;99.90;;;;;;6288771;22;20192;-81
2022/03/02 10:23:35;;;;;;;10.50;10.20;;;5.20;99.90;;;;;;6287655;22;20248;-80
2022/03/02 10:26:13;;;;;;;10.20;9.90;;;5.40;99.90;;;;;;6291819;22;20192;-81
2022/03/02 10:29:00;;;;;;;10.40;10.10;;;5.50;99.90;;;;;;6297633;22;20241;-81
2022/03/02 10:31:52;;;;;;;10.30;10.00;;;5.50;99.90;;;;;;6296185;22;20285;-81
2022/03/02 10:34:34;;;;;;;10.40;10.10;;;5.70;99.90;;;;;;6285737;22;20229;-79
2022/03/02 10:37:31;;;;;;;10.53;10.23;;;5.90;99.90;;;;;;6285584;22;20678;-81
2022/03/02 10:40:09;;;;;;;10.43;10.13;;;6.00;99.90;;;;;;6282865;22;20205;-81
2022/03/02 10:42:41;;;;;;;10.20;9.90;;;6.20;99.90;;;;;;6286414;22;20197;-79
2022/03/02 10:45:15;;;;;;;10.50;10.20;;;6.40;99.90;;;;;;6285497;22;20193;-79
2022/03/02 10:47:54;;;;;;;10.30;10.00;;;6.70;99.90;;;;;;6286885;22;20211;-80
2022/03/02 10:50:23;;;;;;;10.30;10.00;;;6.80;99.90;;;;;;6285280;22;20300;-79
2022/03/02 10:52:55;;;;;;;10.40;10.10;;;7.00;99.90;;;;;;6287195;22;20256;-79
2022/03/02 10:55:25;;;;;;;9.97;9.67;;;7.00;99.90;;;;;;6288373;22;20189;-80
2022/03/02 10:57:55;;;;;;;10.17;9.87;;;7.10;99.90;;;;;;6286445;22;20279;-80
2022/03/02 11:00:25;;;;;;;10.30;10.00;;;7.10;99.90;;;;;;6288579;22;20200;-80
2022/03/02 11:02:57;;;;;;;10.23;9.93;;;7.00;99.90;;;;;;6288910;22;20194;-80
2022/03/02 11:05:27;;;;;;;9.90;9.60;;;7.00;99.90;;;;;;6288947;22;20189;-80
2022/03/02 11:07:56;;;;;;;10.03;9.73;;;7.00;99.90;;;;;;6287993;22;20240;-80
2022/03/02 11:10:32;;;;;;;10.13;9.83;;;7.20;99.90;;;;;;6288308;22;20217;-80
2022/03/02 11:13:03;;;;;;;10.20;9.90;;;7.30;99.90;;;;;;6288343;22;20189;-80
2022/03/02 11:15:48;;;;;;;10.17;9.87;;;7.50;99.90;;;;;;6287889;22;20202;-80
2022/03/02 11:18:17;;;;;;;10.20;9.90;;;7.70;99.90;;;;;;6289885;22;20256;-80
2022/03/02 11:21:00;;;;;;;10.40;10.10;;;7.70;99.90;;;;;;6288670;22;20251;-80
2022/03/02 11:23:33;;;;;;;10.30;10.00;;;7.80;99.90;;;;;;6292940;22;20217;-81
2022/03/02 11:26:10;;;;;;;10.20;9.90;;;7.90;99.90;;;;;;6288509;22;20207;-81
2022/03/02 11:28:39;;;;;;;10.10;9.80;;;8.00;99.90;;;;;;6289164;22;20208;-81
2022/03/02 11:31:10;;;;;;;10.00;9.70;;;8.10;99.90;;;;;;6288942;22;20205;-80
2022/03/02 11:33:38;;;;;;;10.00;9.70;;;8.10;99.90;;;;;;6288188;22;20196;-81
2022/03/02 11:36:13;;;;;;;9.67;9.37;;;8.00;99.90;;;;;;6287924;22;20205;-81
2022/03/02 11:38:45;;;;;;;9.73;9.43;;;7.90;99.90;;;;;;6291155;22;20207;-81
2022/03/02 11:41:15;;;;;;;9.57;9.27;;;7.80;99.90;;;;;;6290541;22;20194;-81
2022/03/02 11:43:43;;;;;;;9.90;9.60;;;7.70;99.90;;;;;;6291044;22;20200;-80
2022/03/02 11:46:12;;;;;;;9.87;9.57;;;7.60;99.90;;;;;;6292482;22;20186;-80
2022/03/02 15:22:50;;;;;;;10.03;9.73;;;10.50;99.90;;;;;;5952764;23;20324;-85
2022/03/02 16:19:55;;;;;;;10.30;10.00;;;10.30;99.90;;;;;;6208513;22;20223;-85
2022/03/02 16:39:11;;;;;;;;;;;;;;;;;;;;;
2022/03/02 18:27:15;;;;;;;8.77;8.57;;;5.40;99.90;;;;;;6068237;23;20258;-85
2022/03/02 20:24:07;;;;;;;;;;;;;;;;;;;;;
